sensor_id;sensor_type;location;lat;lon;timestamp;P1;durP1;ratioP1;P2;durP2;ratioP2
13228;SDS011;6680;53.220;10.402;2023-07-31T00:02:18;2.53;;;2.30;;
13228;SDS011;6680;53.220;10.402;2023-07-31T00:04:45;2.63;;;2.40;;
13228;SDS011;6680;53.220;10.402;2023-07-31T00:07:12;5.43;;;3.03;;
13228;SDS011;6680;53.220;10.402;2023-07-31T00:09:38;3.83;;;2.20;;
13228;SDS011;6680;53.220;10.402;2023-07-31T00:12:05;3.67;;;2.13;;
13228;SDS011;6680;53.220;10.402;2023-07-31T00:14:32;2.57;;;1.97;;
13228;SDS011;6680;53.220;10.402;2023-07-31T00:17:01;3.23;;;2.30;;
13228;SDS011;6680;53.220;10.402;2023-07-31T00:19:27;2.50;;;2.30;;
13228;SDS011;6680;53.220;10.402;2023-07-31T00:21:54;3.57;;;1.97;;
13228;SDS011;6680;53.220;10.402;2023-07-31T00:24:21;5.63;;;2.30;;
13228;SDS011;6680;53.220;10.402;2023-07-31T00:26:47;3.90;;;2.03;;
13228;SDS011;6680;53.220;10.402;2023-07-31T00:29:14;2.47;;;2.27;;
13228;SDS011;6680;53.220;10.402;2023-07-31T00:31:41;5.77;;;2.83;;
13228;SDS011;6680;53.220;10.402;2023-07-31T00:34:09;5.73;;;2.47;;
13228;SDS011;6680;53.220;10.402;2023-07-31T00:36:35;2.87;;;2.13;;
13228;SDS011;6680;53.220;10.402;2023-07-31T00:39:02;6.33;;;2.60;;
13228;SDS011;6680;53.220;10.402;2023-07-31T00:41:29;3.37;;;2.33;;
13228;SDS011;6680;53.220;10.402;2023-07-31T00:43:56;3.90;;;2.30;;
13228;SDS011;6680;53.220;10.402;2023-07-31T00:46:23;4.87;;;2.60;;
13228;SDS011;6680;53.220;10.402;2023-07-31T00:48:49;5.03;;;2.57;;
13228;SDS011;6680;53.220;10.402;2023-07-31T00:51:18;6.50;;;2.50;;
13228;SDS011;6680;53.220;10.402;2023-07-31T00:53:44;2.73;;;2.27;;
13228;SDS011;6680;53.220;10.402;2023-07-31T00:56:12;2.60;;;2.40;;
13228;SDS011;6680;53.220;10.402;2023-07-31T00:58:39;3.60;;;2.70;;
13228;SDS011;6680;53.220;10.402;2023-07-31T01:01:06;2.43;;;2.23;;
13228;SDS011;6680;53.220;10.402;2023-07-31T01:03:33;3.80;;;3.10;;
13228;SDS011;6680;53.220;10.402;2023-07-31T01:06:04;2.87;;;2.50;;
13228;SDS011;6680;53.220;10.402;2023-07-31T01:08:42;3.53;;;2.73;;
13228;SDS011;6680;53.220;10.402;2023-07-31T01:11:17;6.40;;;2.20;;
13228;SDS011;6680;53.220;10.402;2023-07-31T01:13:46;2.60;;;2.40;;
13228;SDS011;6680;53.220;10.402;2023-07-31T01:16:13;4.80;;;2.57;;
13228;SDS011;6680;53.220;10.402;2023-07-31T01:18:40;5.50;;;2.60;;
13228;SDS011;6680;53.220;10.402;2023-07-31T01:21:17;2.67;;;2.47;;
13228;SDS011;6680;53.220;10.402;2023-07-31T01:23:59;4.07;;;2.70;;
13228;SDS011;6680;53.220;10.402;2023-07-31T01:26:39;5.60;;;2.97;;
13228;SDS011;6680;53.220;10.402;2023-07-31T01:29:07;5.50;;;2.73;;
13228;SDS011;6680;53.220;10.402;2023-07-31T01:31:37;2.40;;;2.20;;
13228;SDS011;6680;53.220;10.402;2023-07-31T01:34:05;4.73;;;2.60;;
13228;SDS011;6680;53.220;10.402;2023-07-31T01:36:34;3.03;;;2.70;;
13228;SDS011;6680;53.220;10.402;2023-07-31T01:39:02;5.03;;;2.30;;
13228;SDS011;6680;53.220;10.402;2023-07-31T01:41:29;5.10;;;2.80;;
13228;SDS011;6680;53.220;10.402;2023-07-31T01:43:57;4.50;;;3.13;;
13228;SDS011;6680;53.220;10.402;2023-07-31T01:46:24;3.13;;;2.83;;
13228;SDS011;6680;53.220;10.402;2023-07-31T01:48:50;3.37;;;2.77;;
13228;SDS011;6680;53.220;10.402;2023-07-31T01:51:17;5.27;;;2.60;;
13228;SDS011;6680;53.220;10.402;2023-07-31T01:53:44;5.43;;;2.40;;
13228;SDS011;6680;53.220;10.402;2023-07-31T01:56:10;5.90;;;3.10;;
13228;SDS011;6680;53.220;10.402;2023-07-31T01:58:37;6.97;;;2.87;;
13228;SDS011;6680;53.220;10.402;2023-07-31T02:01:05;3.43;;;2.70;;
13228;SDS011;6680;53.220;10.402;2023-07-31T02:03:32;4.77;;;2.90;;
13228;SDS011;6680;53.220;10.402;2023-07-31T02:05:59;2.97;;;2.73;;
13228;SDS011;6680;53.220;10.402;2023-07-31T02:08:25;4.57;;;2.73;;
13228;SDS011;6680;53.220;10.402;2023-07-31T02:10:52;3.43;;;3.10;;
13228;SDS011;6680;53.220;10.402;2023-07-31T02:13:19;3.17;;;2.87;;
13228;SDS011;6680;53.220;10.402;2023-07-31T02:15:46;3.57;;;2.67;;
13228;SDS011;6680;53.220;10.402;2023-07-31T02:18:15;4.23;;;2.80;;
13228;SDS011;6680;53.220;10.402;2023-07-31T02:20:41;3.27;;;2.97;;
13228;SDS011;6680;53.220;10.402;2023-07-31T02:23:11;3.20;;;2.90;;
13228;SDS011;6680;53.220;10.402;2023-07-31T02:25:37;3.20;;;2.90;;
13228;SDS011;6680;53.220;10.402;2023-07-31T02:28:04;7.20;;;2.97;;
13228;SDS011;6680;53.220;10.402;2023-07-31T02:30:31;4.87;;;3.00;;
13228;SDS011;6680;53.220;10.402;2023-07-31T02:32:57;5.13;;;3.27;;
13228;SDS011;6680;53.220;10.402;2023-07-31T02:35:25;5.73;;;2.90;;
13228;SDS011;6680;53.220;10.402;2023-07-31T02:37:52;5.23;;;3.20;;
13228;SDS011;6680;53.220;10.402;2023-07-31T02:40:19;8.00;;;3.63;;
13228;SDS011;6680;53.220;10.402;2023-07-31T02:42:45;7.90;;;3.50;;
13228;SDS011;6680;53.220;10.402;2023-07-31T02:45:12;4.47;;;3.70;;
13228;SDS011;6680;53.220;10.402;2023-07-31T02:47:39;4.33;;;3.93;;
13228;SDS011;6680;53.220;10.402;2023-07-31T02:50:06;4.13;;;3.73;;
13228;SDS011;6680;53.220;10.402;2023-07-31T02:52:34;4.70;;;4.20;;
13228;SDS011;6680;53.220;10.402;2023-07-31T02:55:01;4.47;;;3.87;;
13228;SDS011;6680;53.220;10.402;2023-07-31T02:57:28;5.60;;;4.43;;
13228;SDS011;6680;53.220;10.402;2023-07-31T02:59:54;4.73;;;4.03;;
13228;SDS011;6680;53.220;10.402;2023-07-31T03:02:21;5.13;;;4.10;;
13228;SDS011;6680;53.220;10.402;2023-07-31T03:04:48;4.63;;;4.13;;
13228;SDS011;6680;53.220;10.402;2023-07-31T03:07:14;9.20;;;4.33;;
13228;SDS011;6680;53.220;10.402;2023-07-31T03:09:42;6.87;;;4.10;;
13228;SDS011;6680;53.220;10.402;2023-07-31T03:12:09;5.60;;;4.67;;
13228;SDS011;6680;53.220;10.402;2023-07-31T03:14:36;5.40;;;4.17;;
13228;SDS011;6680;53.220;10.402;2023-07-31T03:17:03;7.37;;;4.50;;
13228;SDS011;6680;53.220;10.402;2023-07-31T03:19:30;5.57;;;3.90;;
13228;SDS011;6680;53.220;10.402;2023-07-31T03:21:57;6.43;;;4.50;;
13228;SDS011;6680;53.220;10.402;2023-07-31T03:24:24;6.47;;;4.30;;
13228;SDS011;6680;53.220;10.402;2023-07-31T03:26:52;4.40;;;3.87;;
13228;SDS011;6680;53.220;10.402;2023-07-31T03:29:19;9.43;;;4.00;;
13228;SDS011;6680;53.220;10.402;2023-07-31T03:31:45;5.57;;;3.90;;
13228;SDS011;6680;53.220;10.402;2023-07-31T03:34:12;4.03;;;3.70;;
13228;SDS011;6680;53.220;10.402;2023-07-31T03:36:39;4.73;;;4.23;;
13228;SDS011;6680;53.220;10.402;2023-07-31T03:39:05;4.60;;;4.20;;
13228;SDS011;6680;53.220;10.402;2023-07-31T03:41:32;5.27;;;4.10;;
13228;SDS011;6680;53.220;10.402;2023-07-31T03:44:00;5.13;;;4.27;;
13228;SDS011;6680;53.220;10.402;2023-07-31T03:46:27;6.20;;;4.23;;
13228;SDS011;6680;53.220;10.402;2023-07-31T03:48:53;5.23;;;4.33;;
13228;SDS011;6680;53.220;10.402;2023-07-31T03:51:20;4.20;;;3.80;;
13228;SDS011;6680;53.220;10.402;2023-07-31T03:53:47;4.83;;;3.97;;
13228;SDS011;6680;53.220;10.402;2023-07-31T03:56:13;4.67;;;4.27;;
13228;SDS011;6680;53.220;10.402;2023-07-31T03:58:40;4.83;;;4.13;;
13228;SDS011;6680;53.220;10.402;2023-07-31T04:01:08;4.93;;;4.23;;
13228;SDS011;6680;53.220;10.402;2023-07-31T04:03:35;4.77;;;3.90;;
13228;SDS011;6680;53.220;10.402;2023-07-31T04:06:01;4.60;;;4.20;;
13228;SDS011;6680;53.220;10.402;2023-07-31T04:08:28;5.23;;;4.60;;
13228;SDS011;6680;53.220;10.402;2023-07-31T04:10:55;4.60;;;4.20;;
13228;SDS011;6680;53.220;10.402;2023-07-31T04:13:22;4.60;;;4.20;;
13228;SDS011;6680;53.220;10.402;2023-07-31T04:15:49;5.83;;;4.50;;
13228;SDS011;6680;53.220;10.402;2023-07-31T04:18:17;5.00;;;3.90;;
13228;SDS011;6680;53.220;10.402;2023-07-31T04:20:44;4.40;;;4.00;;
13228;SDS011;6680;53.220;10.402;2023-07-31T04:23:10;8.10;;;4.30;;
13228;SDS011;6680;53.220;10.402;2023-07-31T04:25:37;4.53;;;4.07;;
13228;SDS011;6680;53.220;10.402;2023-07-31T04:28:04;4.60;;;4.20;;
13228;SDS011;6680;53.220;10.402;2023-07-31T04:30:31;4.37;;;3.97;;
13228;SDS011;6680;53.220;10.402;2023-07-31T04:32:57;5.37;;;3.80;;
13228;SDS011;6680;53.220;10.402;2023-07-31T04:35:26;6.27;;;4.70;;
13228;SDS011;6680;53.220;10.402;2023-07-31T04:37:53;7.07;;;4.17;;
13228;SDS011;6680;53.220;10.402;2023-07-31T04:40:20;4.30;;;3.90;;
13228;SDS011;6680;53.220;10.402;2023-07-31T04:42:47;5.93;;;3.77;;
13228;SDS011;6680;53.220;10.402;2023-07-31T04:45:14;5.00;;;4.03;;
13228;SDS011;6680;53.220;10.402;2023-07-31T04:47:40;4.20;;;3.80;;
13228;SDS011;6680;53.220;10.402;2023-07-31T04:50:07;5.23;;;3.90;;
13228;SDS011;6680;53.220;10.402;2023-07-31T04:52:36;3.70;;;3.40;;
13228;SDS011;6680;53.220;10.402;2023-07-31T04:55:02;4.30;;;3.90;;
13228;SDS011;6680;53.220;10.402;2023-07-31T04:57:29;4.00;;;3.60;;
13228;SDS011;6680;53.220;10.402;2023-07-31T04:59:56;4.20;;;3.80;;
13228;SDS011;6680;53.220;10.402;2023-07-31T05:02:23;4.23;;;3.40;;
13228;SDS011;6680;53.220;10.402;2023-07-31T05:04:50;6.30;;;3.67;;
13228;SDS011;6680;53.220;10.402;2023-07-31T05:07:16;4.70;;;3.70;;
13228;SDS011;6680;53.220;10.402;2023-07-31T05:09:44;4.87;;;3.60;;
13228;SDS011;6680;53.220;10.402;2023-07-31T05:12:11;3.63;;;3.33;;
13228;SDS011;6680;53.220;10.402;2023-07-31T05:14:38;4.60;;;4.10;;
13228;SDS011;6680;53.220;10.402;2023-07-31T05:17:05;3.60;;;3.30;;
13228;SDS011;6680;53.220;10.402;2023-07-31T05:19:31;4.23;;;3.83;;
13228;SDS011;6680;53.220;10.402;2023-07-31T05:21:58;5.13;;;3.40;;
13228;SDS011;6680;53.220;10.402;2023-07-31T05:24:25;4.73;;;3.33;;
13228;SDS011;6680;53.220;10.402;2023-07-31T05:26:53;3.67;;;3.37;;
13228;SDS011;6680;53.220;10.402;2023-07-31T05:29:19;3.70;;;3.33;;
13228;SDS011;6680;53.220;10.402;2023-07-31T05:31:46;3.80;;;3.50;;
13228;SDS011;6680;53.220;10.402;2023-07-31T05:34:13;5.63;;;3.47;;
13228;SDS011;6680;53.220;10.402;2023-07-31T05:36:39;3.83;;;3.43;;
13228;SDS011;6680;53.220;10.402;2023-07-31T05:39:05;5.17;;;3.40;;
13228;SDS011;6680;53.220;10.402;2023-07-31T05:41:33;3.53;;;3.07;;
13228;SDS011;6680;53.220;10.402;2023-07-31T05:44:02;3.73;;;3.20;;
13228;SDS011;6680;53.220;10.402;2023-07-31T05:46:29;3.37;;;3.13;;
13228;SDS011;6680;53.220;10.402;2023-07-31T05:48:57;4.27;;;3.57;;
13228;SDS011;6680;53.220;10.402;2023-07-31T05:51:25;4.37;;;3.47;;
13228;SDS011;6680;53.220;10.402;2023-07-31T05:53:52;3.07;;;2.87;;
13228;SDS011;6680;53.220;10.402;2023-07-31T05:56:19;3.13;;;2.93;;
13228;SDS011;6680;53.220;10.402;2023-07-31T05:58:46;2.90;;;2.70;;
13228;SDS011;6680;53.220;10.402;2023-07-31T06:01:15;3.43;;;2.87;;
13228;SDS011;6680;53.220;10.402;2023-07-31T06:03:42;2.70;;;2.50;;
13228;SDS011;6680;53.220;10.402;2023-07-31T06:06:08;2.97;;;2.77;;
13228;SDS011;6680;53.220;10.402;2023-07-31T06:08:35;5.00;;;3.13;;
13228;SDS011;6680;53.220;10.402;2023-07-31T06:11:02;2.90;;;2.70;;
13228;SDS011;6680;53.220;10.402;2023-07-31T06:13:29;2.63;;;2.43;;
13228;SDS011;6680;53.220;10.402;2023-07-31T06:15:56;2.70;;;2.50;;
13228;SDS011;6680;53.220;10.402;2023-07-31T06:18:25;2.37;;;2.17;;
13228;SDS011;6680;53.220;10.402;2023-07-31T06:20:52;2.70;;;2.50;;
13228;SDS011;6680;53.220;10.402;2023-07-31T06:23:18;2.50;;;2.30;;
13228;SDS011;6680;53.220;10.402;2023-07-31T06:25:45;2.27;;;2.07;;
13228;SDS011;6680;53.220;10.402;2023-07-31T06:28:12;3.23;;;2.30;;
13228;SDS011;6680;53.220;10.402;2023-07-31T06:30:39;2.53;;;2.33;;
13228;SDS011;6680;53.220;10.402;2023-07-31T06:33:06;3.77;;;2.10;;
13228;SDS011;6680;53.220;10.402;2023-07-31T06:35:35;2.63;;;2.30;;
13228;SDS011;6680;53.220;10.402;2023-07-31T06:38:02;2.17;;;1.97;;
13228;SDS011;6680;53.220;10.402;2023-07-31T06:40:29;2.43;;;2.10;;
13228;SDS011;6680;53.220;10.402;2023-07-31T06:42:55;1.97;;;1.83;;
13228;SDS011;6680;53.220;10.402;2023-07-31T06:45:22;3.60;;;2.03;;
13228;SDS011;6680;53.220;10.402;2023-07-31T06:47:49;1.93;;;1.80;;
13228;SDS011;6680;53.220;10.402;2023-07-31T06:50:16;1.77;;;1.67;;
13228;SDS011;6680;53.220;10.402;2023-07-31T06:52:44;2.00;;;1.80;;
13228;SDS011;6680;53.220;10.402;2023-07-31T06:55:17;2.37;;;2.17;;
13228;SDS011;6680;53.220;10.402;2023-07-31T06:57:45;2.27;;;2.13;;
13228;SDS011;6680;53.220;10.402;2023-07-31T07:00:12;2.33;;;2.13;;
13228;SDS011;6680;53.220;10.402;2023-07-31T07:02:39;1.60;;;1.50;;
13228;SDS011;6680;53.220;10.402;2023-07-31T07:05:06;2.33;;;1.67;;
13228;SDS011;6680;53.220;10.402;2023-07-31T07:07:33;2.07;;;1.93;;
13228;SDS011;6680;53.220;10.402;2023-07-31T07:10:01;2.20;;;1.97;;
13228;SDS011;6680;53.220;10.402;2023-07-31T07:12:30;3.43;;;2.27;;
13228;SDS011;6680;53.220;10.402;2023-07-31T07:14:58;2.17;;;1.63;;
13228;SDS011;6680;53.220;10.402;2023-07-31T07:17:25;1.87;;;1.77;;
13228;SDS011;6680;53.220;10.402;2023-07-31T07:19:54;2.07;;;1.87;;
13228;SDS011;6680;53.220;10.402;2023-07-31T07:22:21;6.17;;;1.80;;
13228;SDS011;6680;53.220;10.402;2023-07-31T07:24:48;1.73;;;1.63;;
13228;SDS011;6680;53.220;10.402;2023-07-31T07:27:16;1.67;;;1.57;;
13228;SDS011;6680;53.220;10.402;2023-07-31T07:29:42;1.80;;;1.70;;
13228;SDS011;6680;53.220;10.402;2023-07-31T07:32:09;1.90;;;1.80;;
13228;SDS011;6680;53.220;10.402;2023-07-31T07:34:36;1.83;;;1.73;;
13228;SDS011;6680;53.220;10.402;2023-07-31T07:37:04;1.87;;;1.77;;
13228;SDS011;6680;53.220;10.402;2023-07-31T07:39:31;1.53;;;1.43;;
13228;SDS011;6680;53.220;10.402;2023-07-31T07:41:57;1.97;;;1.87;;
13228;SDS011;6680;53.220;10.402;2023-07-31T07:44:25;2.43;;;1.90;;
13228;SDS011;6680;53.220;10.402;2023-07-31T07:46:52;1.60;;;1.50;;
13228;SDS011;6680;53.220;10.402;2023-07-31T07:49:19;2.10;;;1.60;;
13228;SDS011;6680;53.220;10.402;2023-07-31T07:51:47;1.73;;;1.63;;
13228;SDS011;6680;53.220;10.402;2023-07-31T07:54:14;2.00;;;1.90;;
13228;SDS011;6680;53.220;10.402;2023-07-31T07:56:41;1.80;;;1.70;;
13228;SDS011;6680;53.220;10.402;2023-07-31T07:59:08;1.80;;;1.70;;
13228;SDS011;6680;53.220;10.402;2023-07-31T08:01:37;1.97;;;1.87;;
13228;SDS011;6680;53.220;10.402;2023-07-31T08:04:03;1.83;;;1.73;;
13228;SDS011;6680;53.220;10.402;2023-07-31T08:06:30;1.63;;;1.53;;
13228;SDS011;6680;53.220;10.402;2023-07-31T08:08:57;3.10;;;1.87;;
13228;SDS011;6680;53.220;10.402;2023-07-31T08:11:23;1.80;;;1.70;;
13228;SDS011;6680;53.220;10.402;2023-07-31T08:13:50;1.60;;;1.50;;
13228;SDS011;6680;53.220;10.402;2023-07-31T08:16:17;1.30;;;1.30;;
13228;SDS011;6680;53.220;10.402;2023-07-31T08:18:45;1.80;;;1.70;;
13228;SDS011;6680;53.220;10.402;2023-07-31T08:21:11;1.43;;;1.33;;
13228;SDS011;6680;53.220;10.402;2023-07-31T08:23:38;1.63;;;1.53;;
13228;SDS011;6680;53.220;10.402;2023-07-31T08:26:05;1.30;;;1.30;;
13228;SDS011;6680;53.220;10.402;2023-07-31T08:28:32;1.40;;;1.40;;
13228;SDS011;6680;53.220;10.402;2023-07-31T08:31:00;2.10;;;1.57;;
13228;SDS011;6680;53.220;10.402;2023-07-31T08:33:26;1.33;;;1.33;;
13228;SDS011;6680;53.220;10.402;2023-07-31T08:35:54;1.43;;;1.40;;
13228;SDS011;6680;53.220;10.402;2023-07-31T08:38:21;1.27;;;1.27;;
13228;SDS011;6680;53.220;10.402;2023-07-31T08:40:50;1.57;;;1.47;;
13228;SDS011;6680;53.220;10.402;2023-07-31T08:43:17;1.30;;;1.30;;
13228;SDS011;6680;53.220;10.402;2023-07-31T08:45:44;1.30;;;1.30;;
13228;SDS011;6680;53.220;10.402;2023-07-31T08:48:13;1.27;;;1.27;;
13228;SDS011;6680;53.220;10.402;2023-07-31T08:50:41;1.37;;;1.27;;
13228;SDS011;6680;53.220;10.402;2023-07-31T08:53:10;1.40;;;1.40;;
13228;SDS011;6680;53.220;10.402;2023-07-31T08:55:37;1.20;;;1.20;;
13228;SDS011;6680;53.220;10.402;2023-07-31T08:58:04;1.27;;;1.17;;
13228;SDS011;6680;53.220;10.402;2023-07-31T09:00:31;1.10;;;1.10;;
13228;SDS011;6680;53.220;10.402;2023-07-31T09:02:59;1.50;;;1.40;;
13228;SDS011;6680;53.220;10.402;2023-07-31T09:05:29;1.50;;;1.50;;
13228;SDS011;6680;53.220;10.402;2023-07-31T09:07:57;1.60;;;1.40;;
13228;SDS011;6680;53.220;10.402;2023-07-31T09:10:25;1.50;;;1.40;;
13228;SDS011;6680;53.220;10.402;2023-07-31T09:12:52;1.40;;;1.40;;
13228;SDS011;6680;53.220;10.402;2023-07-31T09:15:19;1.50;;;1.40;;
13228;SDS011;6680;53.220;10.402;2023-07-31T09:17:46;1.50;;;1.50;;
13228;SDS011;6680;53.220;10.402;2023-07-31T09:20:14;1.17;;;1.17;;
13228;SDS011;6680;53.220;10.402;2023-07-31T09:22:42;1.20;;;1.20;;
13228;SDS011;6680;53.220;10.402;2023-07-31T09:25:15;1.40;;;1.30;;
13228;SDS011;6680;53.220;10.402;2023-07-31T09:27:48;1.73;;;1.63;;
13228;SDS011;6680;53.220;10.402;2023-07-31T09:30:16;1.80;;;1.70;;
13228;SDS011;6680;53.220;10.402;2023-07-31T09:32:43;3.03;;;2.00;;
13228;SDS011;6680;53.220;10.402;2023-07-31T09:35:14;2.73;;;2.20;;
13228;SDS011;6680;53.220;10.402;2023-07-31T09:37:48;2.27;;;2.07;;
13228;SDS011;6680;53.220;10.402;2023-07-31T09:40:24;4.77;;;2.80;;
13228;SDS011;6680;53.220;10.402;2023-07-31T09:42:53;2.70;;;2.40;;
13228;SDS011;6680;53.220;10.402;2023-07-31T09:45:22;8.40;;;2.97;;
13228;SDS011;6680;53.220;10.402;2023-07-31T09:47:49;4.17;;;3.20;;
13228;SDS011;6680;53.220;10.402;2023-07-31T09:50:16;5.70;;;3.17;;
13228;SDS011;6680;53.220;10.402;2023-07-31T09:52:43;4.83;;;3.70;;
13228;SDS011;6680;53.220;10.402;2023-07-31T09:55:10;5.30;;;3.30;;
13228;SDS011;6680;53.220;10.402;2023-07-31T09:57:37;7.57;;;3.37;;
13228;SDS011;6680;53.220;10.402;2023-07-31T10:00:08;5.13;;;3.93;;
13228;SDS011;6680;53.220;10.402;2023-07-31T10:02:36;6.77;;;3.67;;
13228;SDS011;6680;53.220;10.402;2023-07-31T10:05:04;6.60;;;4.00;;
13228;SDS011;6680;53.220;10.402;2023-07-31T10:07:34;7.60;;;3.80;;
13228;SDS011;6680;53.220;10.402;2023-07-31T10:10:03;6.53;;;4.23;;
13228;SDS011;6680;53.220;10.402;2023-07-31T10:12:33;7.07;;;4.27;;
13228;SDS011;6680;53.220;10.402;2023-07-31T10:15:00;10.47;;;4.03;;
13228;SDS011;6680;53.220;10.402;2023-07-31T10:17:29;6.63;;;4.33;;
13228;SDS011;6680;53.220;10.402;2023-07-31T10:19:56;9.07;;;4.27;;
13228;SDS011;6680;53.220;10.402;2023-07-31T10:22:24;6.70;;;4.43;;
13228;SDS011;6680;53.220;10.402;2023-07-31T10:24:51;5.23;;;3.93;;
13228;SDS011;6680;53.220;10.402;2023-07-31T10:27:20;5.23;;;4.13;;
13228;SDS011;6680;53.220;10.402;2023-07-31T10:29:47;4.70;;;3.90;;
13228;SDS011;6680;53.220;10.402;2023-07-31T10:32:14;9.10;;;4.07;;
13228;SDS011;6680;53.220;10.402;2023-07-31T10:34:44;7.00;;;4.60;;
13228;SDS011;6680;53.220;10.402;2023-07-31T10:37:24;7.40;;;4.13;;
13228;SDS011;6680;53.220;10.402;2023-07-31T10:39:56;6.13;;;4.10;;
13228;SDS011;6680;53.220;10.402;2023-07-31T10:42:27;5.20;;;4.40;;
13228;SDS011;6680;53.220;10.402;2023-07-31T10:44:59;6.17;;;4.40;;
13228;SDS011;6680;53.220;10.402;2023-07-31T10:47:27;7.57;;;4.57;;
13228;SDS011;6680;53.220;10.402;2023-07-31T10:52:43;5.93;;;3.97;;
13228;SDS011;6680;53.220;10.402;2023-07-31T10:55:16;7.77;;;4.30;;
13228;SDS011;6680;53.220;10.402;2023-07-31T10:57:51;4.70;;;4.00;;
13228;SDS011;6680;53.220;10.402;2023-07-31T11:00:19;6.17;;;4.07;;
13228;SDS011;6680;53.220;10.402;2023-07-31T11:03:00;4.60;;;4.20;;
13228;SDS011;6680;53.220;10.402;2023-07-31T11:05:46;5.40;;;4.27;;
13228;SDS011;6680;53.220;10.402;2023-07-31T11:08:15;5.87;;;3.73;;
13228;SDS011;6680;53.220;10.402;2023-07-31T11:10:44;6.97;;;3.90;;
13228;SDS011;6680;53.220;10.402;2023-07-31T11:13:11;4.83;;;3.90;;
13228;SDS011;6680;53.220;10.402;2023-07-31T11:15:39;7.83;;;3.90;;
13228;SDS011;6680;53.220;10.402;2023-07-31T11:18:06;4.83;;;3.57;;
13228;SDS011;6680;53.220;10.402;2023-07-31T11:20:33;6.57;;;3.70;;
13228;SDS011;6680;53.220;10.402;2023-07-31T11:23:03;5.00;;;3.80;;
13228;SDS011;6680;53.220;10.402;2023-07-31T11:25:32;4.23;;;3.20;;
13228;SDS011;6680;53.220;10.402;2023-07-31T11:28:01;4.13;;;3.07;;
13228;SDS011;6680;53.220;10.402;2023-07-31T11:30:29;5.80;;;3.43;;
13228;SDS011;6680;53.220;10.402;2023-07-31T11:32:56;5.27;;;3.50;;
13228;SDS011;6680;53.220;10.402;2023-07-31T11:35:22;5.67;;;3.07;;
13228;SDS011;6680;53.220;10.402;2023-07-31T11:37:49;4.33;;;3.10;;
13228;SDS011;6680;53.220;10.402;2023-07-31T11:40:17;3.10;;;2.80;;
13228;SDS011;6680;53.220;10.402;2023-07-31T11:42:45;3.90;;;2.53;;
13228;SDS011;6680;53.220;10.402;2023-07-31T11:45:11;3.90;;;2.53;;
13228;SDS011;6680;53.220;10.402;2023-07-31T11:47:38;4.27;;;2.37;;
13228;SDS011;6680;53.220;10.402;2023-07-31T11:50:05;4.77;;;2.97;;
13228;SDS011;6680;53.220;10.402;2023-07-31T11:52:36;4.47;;;2.17;;
13228;SDS011;6680;53.220;10.402;2023-07-31T11:55:06;2.87;;;2.07;;
13228;SDS011;6680;53.220;10.402;2023-07-31T11:57:37;2.70;;;2.50;;
13228;SDS011;6680;53.220;10.402;2023-07-31T12:00:06;2.23;;;2.00;;
13228;SDS011;6680;53.220;10.402;2023-07-31T12:02:35;3.87;;;2.20;;
13228;SDS011;6680;53.220;10.402;2023-07-31T12:05:04;2.30;;;2.10;;
13228;SDS011;6680;53.220;10.402;2023-07-31T12:07:42;2.20;;;2.00;;
13228;SDS011;6680;53.220;10.402;2023-07-31T12:10:23;2.23;;;2.00;;
13228;SDS011;6680;53.220;10.402;2023-07-31T12:12:56;2.30;;;2.10;;
13228;SDS011;6680;53.220;10.402;2023-07-31T12:15:28;1.93;;;1.83;;
13228;SDS011;6680;53.220;10.402;2023-07-31T12:17:57;2.43;;;2.23;;
13228;SDS011;6680;53.220;10.402;2023-07-31T12:20:24;2.30;;;2.00;;
13228;SDS011;6680;53.220;10.402;2023-07-31T12:22:50;2.27;;;2.17;;
13228;SDS011;6680;53.220;10.402;2023-07-31T12:25:17;2.03;;;1.93;;
13228;SDS011;6680;53.220;10.402;2023-07-31T12:27:44;2.63;;;2.20;;
13228;SDS011;6680;53.220;10.402;2023-07-31T12:33:05;3.00;;;2.20;;
13228;SDS011;6680;53.220;10.402;2023-07-31T12:35:41;2.10;;;2.00;;
13228;SDS011;6680;53.220;10.402;2023-07-31T12:38:10;2.60;;;2.40;;
13228;SDS011;6680;53.220;10.402;2023-07-31T12:40:37;2.07;;;1.97;;
13228;SDS011;6680;53.220;10.402;2023-07-31T12:43:05;2.43;;;2.23;;
13228;SDS011;6680;53.220;10.402;2023-07-31T12:45:31;2.67;;;2.47;;
13228;SDS011;6680;53.220;10.402;2023-07-31T12:47:59;2.20;;;2.10;;
13228;SDS011;6680;53.220;10.402;2023-07-31T12:50:27;2.33;;;2.13;;
13228;SDS011;6680;53.220;10.402;2023-07-31T12:52:54;2.10;;;1.90;;
13228;SDS011;6680;53.220;10.402;2023-07-31T12:55:21;3.10;;;2.27;;
13228;SDS011;6680;53.220;10.402;2023-07-31T12:57:48;2.80;;;2.60;;
13228;SDS011;6680;53.220;10.402;2023-07-31T13:00:14;2.50;;;2.30;;
13228;SDS011;6680;53.220;10.402;2023-07-31T13:02:41;2.13;;;1.97;;
13228;SDS011;6680;53.220;10.402;2023-07-31T13:05:08;2.20;;;2.10;;
13228;SDS011;6680;53.220;10.402;2023-07-31T13:07:36;2.97;;;2.07;;
13228;SDS011;6680;53.220;10.402;2023-07-31T13:10:03;2.17;;;1.93;;
13228;SDS011;6680;53.220;10.402;2023-07-31T13:12:31;2.23;;;2.13;;
13228;SDS011;6680;53.220;10.402;2023-07-31T13:14:57;2.13;;;1.93;;
13228;SDS011;6680;53.220;10.402;2023-07-31T13:17:24;2.47;;;2.27;;
13228;SDS011;6680;53.220;10.402;2023-07-31T13:19:51;2.30;;;2.10;;
13228;SDS011;6680;53.220;10.402;2023-07-31T13:22:18;1.97;;;1.83;;
13228;SDS011;6680;53.220;10.402;2023-07-31T13:24:46;3.33;;;2.10;;
13228;SDS011;6680;53.220;10.402;2023-07-31T13:27:13;3.03;;;2.23;;
13228;SDS011;6680;53.220;10.402;2023-07-31T13:29:41;2.33;;;2.23;;
13228;SDS011;6680;53.220;10.402;2023-07-31T13:32:08;2.57;;;2.13;;
13228;SDS011;6680;53.220;10.402;2023-07-31T13:34:35;2.00;;;1.80;;
13228;SDS011;6680;53.220;10.402;2023-07-31T13:37:01;2.50;;;2.30;;
13228;SDS011;6680;53.220;10.402;2023-07-31T13:39:30;1.77;;;1.67;;
13228;SDS011;6680;53.220;10.402;2023-07-31T13:41:59;1.90;;;1.80;;
13228;SDS011;6680;53.220;10.402;2023-07-31T13:44:26;2.10;;;2.00;;
13228;SDS011;6680;53.220;10.402;2023-07-31T13:46:53;1.83;;;1.67;;
13228;SDS011;6680;53.220;10.402;2023-07-31T13:49:19;1.83;;;1.73;;
13228;SDS011;6680;53.220;10.402;2023-07-31T13:51:46;1.70;;;1.60;;
13228;SDS011;6680;53.220;10.402;2023-07-31T13:54:13;3.10;;;2.00;;
13228;SDS011;6680;53.220;10.402;2023-07-31T13:56:40;1.93;;;1.73;;
13228;SDS011;6680;53.220;10.402;2023-07-31T13:59:08;1.97;;;1.70;;
13228;SDS011;6680;53.220;10.402;2023-07-31T14:01:36;1.80;;;1.70;;
13228;SDS011;6680;53.220;10.402;2023-07-31T14:04:03;3.37;;;1.90;;
13228;SDS011;6680;53.220;10.402;2023-07-31T14:06:29;1.87;;;1.77;;
13228;SDS011;6680;53.220;10.402;2023-07-31T14:08:56;1.67;;;1.57;;
13228;SDS011;6680;53.220;10.402;2023-07-31T14:11:23;1.67;;;1.57;;
13228;SDS011;6680;53.220;10.402;2023-07-31T14:13:50;1.80;;;1.70;;
13228;SDS011;6680;53.220;10.402;2023-07-31T14:16:18;2.10;;;2.00;;
13228;SDS011;6680;53.220;10.402;2023-07-31T14:18:45;1.90;;;1.80;;
13228;SDS011;6680;53.220;10.402;2023-07-31T14:21:12;1.90;;;1.80;;
13228;SDS011;6680;53.220;10.402;2023-07-31T14:23:39;1.90;;;1.80;;
13228;SDS011;6680;53.220;10.402;2023-07-31T14:26:05;2.10;;;2.00;;
13228;SDS011;6680;53.220;10.402;2023-07-31T14:28:32;1.90;;;1.80;;
13228;SDS011;6680;53.220;10.402;2023-07-31T14:30:59;2.03;;;1.93;;
13228;SDS011;6680;53.220;10.402;2023-07-31T14:33:27;2.30;;;2.10;;
13228;SDS011;6680;53.220;10.402;2023-07-31T14:35:53;2.23;;;2.13;;
13228;SDS011;6680;53.220;10.402;2023-07-31T14:38:20;2.13;;;2.03;;
13228;SDS011;6680;53.220;10.402;2023-07-31T14:40:47;2.93;;;2.63;;
13228;SDS011;6680;53.220;10.402;2023-07-31T14:43:14;2.47;;;2.27;;
13228;SDS011;6680;53.220;10.402;2023-07-31T14:45:41;2.80;;;2.60;;
13228;SDS011;6680;53.220;10.402;2023-07-31T14:48:08;2.20;;;2.00;;
13228;SDS011;6680;53.220;10.402;2023-07-31T14:50:36;2.10;;;2.00;;
13228;SDS011;6680;53.220;10.402;2023-07-31T14:53:02;2.30;;;2.20;;
13228;SDS011;6680;53.220;10.402;2023-07-31T14:55:29;2.63;;;2.43;;
13228;SDS011;6680;53.220;10.402;2023-07-31T14:57:55;2.50;;;2.30;;